首页
METAR-TAF:

METAR-TAF

机场 :

Burwash, 育康省, 加拿大

纬度: 61-22N, 经度: 139-02W, 海拔: 807米

当前天气观测

该预报发布于33分钟前的08:00 UTC
静风
温度 12°C
湿度 82%
气压 1012 hPa
能見度: 14.5公里
散云层高于14000英尺

METAR: CYDB 190800Z AUTO 00000KT 9SM SCT140 12/09 A2988 RMK SLP134 DENSITY ALT 2800FT

时间: 01:33 (08:33 UTC)

预报

该预报发布于2小时和55分钟前的05:38 UTC
预报有效从19日的 06点(UTC)到 19日的 18点(UTC)
风速3节,风向多变
能見度: 10公里
少量云层高于8000英尺
多云层高于12000英尺
短暂存在
从 19日的 06点(UTC)到 19日的 15点(UTC)
多云层高于8000英尺
从 19日的 1500点(UTC)
风速3节,风向多变
能見度: 10公里
散云层高于6000英尺
多云层高于12000英尺
短暂存在
从 19日的 15点(UTC)到 19日的 18点(UTC)
能見度: 10公里
多云层高于6000英尺
小阵雨

TAF: CYDB 190538Z 1906/1918 VRB03KT P6SM FEW080 BKN120 TEMPO 1906/1915 BKN080 FM191500 VRB03KT P6SM SCT060 BKN120 TEMPO 1915/1918 P6SM -SHRA BKN060 RMK FCST BASED ON AUTO OBS. NXT FCST BY 191200Z

超过4000个机场的气象观测和天气预报(METAR&TAF报告)。

可查询的气象台以黄色和红色小点在地图上表示。

将鼠标移到小点上方,可查看气象台名称。

然后点击查看天气观测和预报。

如需切换地图:点击带黑十字的绿色按钮放大地图;点击带横线的绿色按钮缩小地图;或者点击绿色箭头查看邻近地区的地图。


METAR-TAF: